Time;durP1;ratioP1;P1;durP2;ratioP2;P2;SDS_P1;SDS_P2;PMS_P1;PMS_P2;Temp;Humidity;BMP_temperature;BMP_pressure;BME280_temperature;BME280_humidity;BME280_pressure;Samples;Min_cycle;Max_cycle;Signal;HPM_P1;HPM_P2
2023/07/05 00:00:25;;;;;;;5.35;3.30;;;;;;;21.79;53.24;100724.94;4180068;28;20045;-68
2023/07/05 00:02:27;;;;;;;9.70;3.53;;;;;;;21.77;53.37;100724.22;4179803;28;20083;-69
2023/07/05 00:04:28;;;;;;;6.50;3.45;;;;;;;21.78;53.11;100725.91;4179715;28;20111;-68
2023/07/05 00:06:30;;;;;;;5.65;3.38;;;;;;;21.75;53.33;100735.06;4178903;28;20072;-67
2023/07/05 00:08:33;;;;;;;5.80;3.53;;;;;;;21.74;52.92;100733.34;4188477;28;20071;-68
2023/07/05 00:10:35;;;;;;;5.78;3.30;;;;;;;21.74;53.18;100735.16;4195818;28;20102;-67
2023/07/05 00:12:37;;;;;;;5.88;3.72;;;;;;;21.73;53.12;100745.03;4196321;28;20055;-68
2023/07/05 00:14:39;;;;;;;5.90;3.70;;;;;;;21.71;53.36;100749.66;4195768;28;20044;-68
2023/07/05 00:16:41;;;;;;;6.30;3.53;;;;;;;21.70;52.78;100742.59;4195699;28;20465;-68
2023/07/05 00:18:42;;;;;;;;;;;;;;;21.67;53.17;100746.38;4192815;28;20049;-68
2023/07/05 00:20:44;;;;;;;6.70;4.10;;;;;;;21.66;53.27;100739.31;4179860;28;20275;-68
2023/07/05 00:22:46;;;;;;;6.78;4.03;;;;;;;21.66;53.29;100746.53;4179789;28;20069;-68
2023/07/05 00:24:50;;;;;;;;;;;;;;;21.67;52.84;100748.22;4179359;28;20052;-68
2023/07/05 00:26:52;;;;;;;6.18;4.25;;;;;;;21.64;52.85;100754.69;4179362;28;19921;-68
2023/07/05 00:28:54;;;;;;;6.57;4.07;;;;;;;21.64;53.00;100745.78;4179755;28;20123;-68
2023/07/05 00:30:56;;;;;;;5.82;4.10;;;;;;;21.64;52.80;100759.16;4179825;28;20045;-68
2023/07/05 00:32:57;;;;;;;;;;;;;;;21.62;53.07;100750.44;4179845;28;20053;-68
2023/07/05 00:34:59;;;;;;;8.02;5.03;;;;;;;21.60;53.21;100763.91;4178987;28;19976;-68
2023/07/05 00:37:01;;;;;;;6.30;4.32;;;;;;;21.60;52.69;100761.25;4179596;28;20049;-68
2023/07/05 00:39:02;;;;;;;7.30;4.78;;;;;;;21.60;53.09;100761.25;4179646;28;20075;-68
2023/07/05 00:41:04;;;;;;;6.88;4.60;;;;;;;21.59;52.97;100764.06;4179058;28;20045;-68
2023/07/05 00:43:06;;;;;;;6.00;4.03;;;;;;;21.59;52.87;100761.38;4178186;28;20084;-68
2023/07/05 00:45:10;;;;;;;6.45;4.30;;;;;;;21.57;52.81;100761.50;4178667;28;20427;-68
2023/07/05 00:47:32;;;;;;;7.22;4.78;;;;;;;21.54;52.94;100765.25;4179485;28;20069;-67
2023/07/05 00:49:37;;;;;;;7.38;4.60;;;;;;;21.54;52.55;100769.75;4179557;28;20504;-68
2023/07/05 00:51:43;;;;;;;6.65;4.93;;;;;;;21.55;52.61;100766.09;4179526;28;20500;-68
2023/07/05 00:53:46;;;;;;;7.35;4.95;;;;;;;21.54;52.54;100781.31;4179724;28;20052;-68
2023/07/05 00:55:52;;;;;;;6.90;4.60;;;;;;;21.54;52.47;100780.44;4178062;28;20163;-68
2023/07/05 00:57:55;;;;;;;6.22;4.15;;;;;;;21.52;52.55;100783.25;4179546;28;20439;-69
2023/07/05 01:00:05;;;;;;;;;;;;;;;21.51;52.36;100783.38;4179743;28;20128;-69
2023/07/05 01:02:07;;;;;;;6.57;5.00;;;;;;;21.49;52.31;100790.69;4179428;28;19928;-68
2023/07/05 01:04:09;;;;;;;6.93;4.80;;;;;;;21.48;52.60;100795.19;4179410;28;20049;-68
2023/07/05 01:06:13;;;;;;;7.93;5.10;;;;;;;21.47;52.32;100787.25;4178340;28;20422;-68
2023/07/05 01:08:15;;;;;;;7.78;4.93;;;;;;;21.48;52.33;100802.34;4187324;28;20047;-68
2023/07/05 01:10:24;;;;;;;7.18;5.28;;;;;;;21.47;52.57;100801.50;4198423;28;20115;-68
2023/07/05 01:12:49;;;;;;;7.43;5.20;;;;;;;21.48;52.07;100810.38;4197820;28;20054;-68
2023/07/05 01:15:02;;;;;;;9.35;5.28;;;;;;;21.47;52.30;100808.69;4198550;28;20041;-69
2023/07/05 01:17:40;;;;;;;7.53;5.20;;;;;;;21.45;52.48;100811.47;4198692;28;20051;-69
2023/07/05 01:19:57;;;;;;;8.40;5.60;;;;;;;21.45;52.22;100807.97;4163805;28;20049;-68
2023/07/05 01:22:06;;;;;;;8.13;5.50;;;;;;;21.42;52.15;100809.03;4163668;28;20045;-69
2023/07/05 01:24:16;;;;;;;7.47;4.90;;;;;;;21.41;52.08;100796.66;4163311;28;20137;-68
2023/07/05 01:26:45;;;;;;;7.57;4.80;;;;;;;21.42;52.33;100802.84;4162608;28;20049;-68
2023/07/05 01:29:13;;;;;;;7.68;5.35;;;;;;;21.42;52.35;100802.84;4163763;28;20058;-68
2023/07/05 01:31:30;;;;;;;7.55;5.60;;;;;;;21.32;51.94;100794.72;4163005;28;20049;-68
2023/07/05 01:33:49;;;;;;;7.82;5.20;;;;;;;21.38;52.13;100803.09;4163615;28;20461;-68
2023/07/05 01:35:54;;;;;;;8.07;5.40;;;;;;;21.36;52.10;100797.03;4162408;28;20057;-68
2023/07/05 01:37:57;;;;;;;7.70;5.47;;;;;;;21.34;51.75;100806.16;4146958;28;20054;-67
2023/07/05 01:39:59;;;;;;;8.73;5.53;;;;;;;21.35;52.00;100827.41;4163518;28;20133;-68
2023/07/05 01:42:03;;;;;;;7.07;5.20;;;;;;;21.35;52.09;100829.22;4163323;28;20045;-68
2023/07/05 01:44:06;;;;;;;8.20;5.60;;;;;;;21.34;51.79;100843.59;4163438;28;20084;-67
2023/07/05 01:46:20;;;;;;;8.02;5.35;;;;;;;21.33;51.74;100839.22;4162172;28;20049;-67
2023/07/05 01:48:40;;;;;;;7.43;5.03;;;;;;;21.33;51.70;100848.09;4163299;28;20512;-68
2023/07/05 01:50:54;;;;;;;7.25;5.30;;;;;;;21.31;52.03;100836.69;4163227;28;20061;-68
2023/07/05 01:53:09;;;;;;;8.43;5.28;;;;;;;21.31;51.92;100831.31;4162791;28;20145;-68
2023/07/05 01:55:46;;;;;;;8.35;5.30;;;;;;;21.33;51.84;100836.53;4162212;28;20140;-67
2023/07/05 01:58:12;;;;;;;7.60;5.10;;;;;;;21.31;51.92;100846.50;4177284;28;20072;-68
2023/07/05 02:00:17;;;;;;;7.28;5.07;;;;;;;21.27;51.84;100853.94;4181634;28;20049;-68
2023/07/05 02:02:22;;;;;;;7.90;5.20;;;;;;;21.27;51.46;100848.56;4181851;28;20047;-69
2023/07/05 02:04:26;;;;;;;7.15;4.95;;;;;;;21.26;51.52;100846.03;4181696;28;20071;-69
2023/07/05 02:06:29;;;;;;;7.93;4.82;;;;;;;21.23;51.72;100845.28;4180047;28;20075;-68
2023/07/05 02:08:36;;;;;;;7.38;4.95;;;;;;;21.24;51.38;100854.19;4190034;28;20136;-69
2023/07/05 02:10:37;;;;;;;8.23;4.95;;;;;;;21.22;51.54;100856.97;4198004;28;20049;-68
2023/07/05 02:12:39;;;;;;;7.50;5.13;;;;;;;21.22;51.40;100856.13;4197964;28;20127;-69
2023/07/05 02:14:41;;;;;;;7.35;4.90;;;;;;;21.21;51.53;100865.09;4197993;28;20098;-68
2023/07/05 02:16:42;;;;;;;7.20;4.72;;;;;;;21.21;51.33;100862.44;4197076;28;20052;-69
2023/07/05 02:18:44;;;;;;;6.32;4.40;;;;;;;21.21;51.64;100875.81;4193539;28;20159;-68
2023/07/05 02:20:46;;;;;;;;;;;;;;;21.19;51.48;100878.59;4181960;28;20471;-68
2023/07/05 02:22:47;;;;;;;7.27;4.90;;;;;;;21.17;51.11;100869.84;4180970;28;19927;-68
2023/07/05 02:24:52;;;;;;;7.10;4.68;;;;;;;21.15;51.45;100871.78;4181226;28;20307;-68
2023/07/05 02:26:56;;;;;;;8.20;4.97;;;;;;;21.17;51.36;100877.88;4178745;28;20055;-68
2023/07/05 02:28:58;;;;;;;6.88;4.65;;;;;;;21.17;51.61;100891.25;4180984;28;20131;-68
2023/07/05 02:31:04;;;;;;;6.25;3.95;;;;;;;21.17;51.50;100882.38;4181002;28;20044;-68
2023/07/05 02:33:06;;;;;;;7.25;4.70;;;;;;;21.15;51.42;100879.81;4181209;28;20041;-69
2023/07/05 02:35:08;;;;;;;7.35;4.30;;;;;;;21.15;51.34;100884.31;4180793;28;20053;-68
2023/07/05 02:37:10;;;;;;;;;;;;;;;21.14;51.12;100887.94;4180777;28;20706;-68
2023/07/05 02:39:12;;;;;;;5.75;3.72;;;;;;;21.10;51.03;100887.34;4180875;28;19924;-68
2023/07/05 02:41:14;;;;;;;;;;;;;;;21.10;51.29;100883.81;4181505;28;20496;-69
2023/07/05 02:43:15;;;;;;;7.18;4.00;;;;;;;21.09;51.48;100882.13;4180909;28;19982;-68
2023/07/05 02:45:17;;;;;;;6.75;4.10;;;;;;;21.08;51.40;100889.28;4180010;28;20128;-69
2023/07/05 02:47:19;;;;;;;8.55;4.35;;;;;;;21.06;51.28;100884.06;4180700;28;20053;-68
2023/07/05 02:49:21;;;;;;;6.72;3.83;;;;;;;21.08;51.23;100894.63;4181113;28;20049;-68
2023/07/05 02:51:26;;;;;;;6.60;3.92;;;;;;;21.06;51.01;100899.25;4180372;28;20040;-69
2023/07/05 02:53:28;;;;;;;6.65;3.85;;;;;;;21.06;50.92;100905.44;4180803;28;20041;-68
2023/07/05 02:55:30;;;;;;;6.55;3.75;;;;;;;21.05;50.91;100900.22;4179804;28;20045;-69
2023/07/05 02:57:32;;;;;;;6.43;3.70;;;;;;;21.05;50.95;100905.56;4180799;28;20115;-68
2023/07/05 02:59:35;;;;;;;7.22;3.72;;;;;;;21.04;50.88;100899.34;4180784;28;20514;-68
2023/07/05 03:01:37;;;;;;;5.90;3.50;;;;;;;21.04;50.87;100906.53;4180645;28;20052;-68
2023/07/05 03:03:38;;;;;;;6.03;3.63;;;;;;;21.04;50.87;100909.22;4180632;28;20049;-69
2023/07/05 03:05:40;;;;;;;7.10;3.05;;;;;;;21.03;50.62;100905.69;4179312;28;20049;-68
2023/07/05 03:07:42;;;;;;;7.03;3.75;;;;;;;21.01;50.88;100899.59;4182234;28;20049;-68
2023/07/05 03:09:48;;;;;;;6.75;3.53;;;;;;;21.01;50.82;100904.94;4196788;28;20044;-68
2023/07/05 03:11:50;;;;;;;6.95;3.28;;;;;;;21.00;51.09;100907.75;4196850;28;20404;-68
2023/07/05 03:13:51;;;;;;;5.75;3.50;;;;;;;20.99;50.94;100914.91;4197110;28;20079;-68
2023/07/05 03:15:53;;;;;;;7.25;3.38;;;;;;;20.98;50.76;100915.88;4195783;28;20438;-69
2023/07/05 03:17:55;;;;;;;5.15;3.33;;;;;;;20.98;50.57;100921.22;4196910;28;20044;-68
2023/07/05 03:19:59;;;;;;;;;;;;;;;20.97;50.65;100924.84;4182860;28;20420;-68
2023/07/05 03:22:00;;;;;;;5.88;3.10;;;;;;;20.90;50.63;100931.66;4180146;28;19920;-68
2023/07/05 03:24:02;;;;;;;6.13;3.35;;;;;;;20.95;50.63;100931.28;4180276;28;20045;-68
2023/07/05 03:26:09;;;;;;;5.28;2.80;;;;;;;20.95;50.47;100931.28;4179374;28;20452;-68
2023/07/05 03:28:11;;;;;;;4.88;2.78;;;;;;;20.95;50.59;100952.69;4180355;28;20052;-68
2023/07/05 03:30:13;;;;;;;7.53;3.00;;;;;;;20.92;50.49;100952.94;4180043;28;20555;-68
2023/07/05 03:32:14;;;;;;;5.28;3.05;;;;;;;20.92;50.61;100945.75;4180207;28;20470;-68
2023/07/05 03:34:16;;;;;;;;;;;;;;;20.92;50.56;100952.94;4180485;28;20120;-67
2023/07/05 03:36:19;;;;;;;7.47;2.97;;;;;;;20.89;50.40;100954.03;4179090;28;19925;-68
2023/07/05 03:38:24;;;;;;;5.97;2.85;;;;;;;20.88;50.30;100952.31;4178973;28;20306;-67
2023/07/05 03:40:25;;;;;;;6.35;2.85;;;;;;;20.90;50.68;100963.75;4180470;28;20075;-68
2023/07/05 03:42:27;;;;;;;4.60;2.55;;;;;;;20.90;50.41;100971.78;4180110;28;20045;-68
2023/07/05 03:44:29;;;;;;;5.78;2.78;;;;;;;20.88;50.56;100963.00;4180035;28;20521;-68
2023/07/05 03:46:30;;;;;;;5.20;2.50;;;;;;;20.87;50.60;100967.47;4179006;28;20052;-68
2023/07/05 03:48:36;;;;;;;;;;;;;;;20.87;50.56;100969.31;4180443;28;20423;-68
2023/07/05 03:50:40;;;;;;;5.20;2.50;;;;;;;20.85;50.42;100980.13;4179888;28;19963;-67
2023/07/05 03:52:41;;;;;;;4.68;2.83;;;;;;;20.84;50.75;100967.72;4179826;28;20060;-68
2023/07/05 03:54:43;;;;;;;5.53;2.38;;;;;;;20.83;50.27;100981.22;4179856;28;20056;-68
2023/07/05 03:56:45;;;;;;;5.57;2.88;;;;;;;20.84;50.34;100977.56;4179067;28;20076;-67
2023/07/05 03:58:47;;;;;;;;;;;;;;;20.84;50.58;100980.22;4180581;28;20045;-67
2023/07/05 04:00:49;;;;;;;4.60;2.40;;;;;;;20.80;50.60;100979.59;4179779;28;19932;-68
2023/07/05 04:02:50;;;;;;;5.28;2.00;;;;;;;20.80;50.32;100982.28;4179610;28;20041;-67
2023/07/05 04:04:52;;;;;;;4.57;2.10;;;;;;;20.80;50.22;100979.59;4179876;28;20041;-67
2023/07/05 04:06:54;;;;;;;5.70;2.65;;;;;;;20.80;50.35;100979.59;4178809;28;20523;-68
2023/07/05 04:08:55;;;;;;;5.57;2.47;;;;;;;20.80;50.49;100995.63;4191485;28;20044;-68
2023/07/05 04:10:57;;;;;;;4.72;2.50;;;;;;;20.79;50.14;100988.63;4196376;28;20131;-67
2023/07/05 04:12:59;;;;;;;5.40;2.25;;;;;;;20.78;50.58;100988.72;4196313;28;20119;-67
2023/07/05 04:15:00;;;;;;;6.40;2.03;;;;;;;20.78;50.45;100991.38;4196141;28;20079;-68
2023/07/05 04:17:02;;;;;;;6.35;2.42;;;;;;;20.78;50.50;100991.38;4194706;28;20068;-68
2023/07/05 04:19:09;;;;;;;4.97;2.30;;;;;;;20.77;50.33;100993.22;4188439;28;20472;-68
2023/07/05 04:21:12;;;;;;;4.43;2.10;;;;;;;20.77;50.13;100998.56;4179876;28;20427;-67
2023/07/05 04:23:14;;;;;;;5.30;2.30;;;;;;;20.76;50.40;101001.34;4179637;28;20041;-68
2023/07/05 04:25:16;;;;;;;6.68;2.25;;;;;;;20.76;50.48;100999.53;4179431;28;20061;-68
2023/07/05 04:27:18;;;;;;;;;;;;;;;20.73;50.35;101005.94;4179201;28;20048;-68
2023/07/05 04:29:19;;;;;;;4.43;2.20;;;;;;;20.72;50.49;101012.25;4179916;28;19931;-68
2023/07/05 04:31:28;;;;;;;4.22;2.05;;;;;;;20.72;50.18;101025.63;4179305;28;20504;-68
2023/07/05 04:33:30;;;;;;;5.72;2.35;;;;;;;20.72;50.14;101020.28;4179686;28;20053;-68
2023/07/05 04:35:32;;;;;;;4.43;2.13;;;;;;;20.72;50.21;101022.94;4179369;28;20400;-68
2023/07/05 04:37:33;;;;;;;4.18;1.98;;;;;;;20.72;50.25;101033.63;4179332;28;20064;-68
2023/07/05 04:39:38;;;;;;;3.95;1.90;;;;;;;20.71;50.02;101031.91;4179675;28;20056;-67
2023/07/05 04:41:40;;;;;;;;;;;;;;;20.70;50.38;101019.50;4180131;28;20053;-68
2023/07/05 04:43:42;;;;;;;5.10;2.00;;;;;;;20.68;50.31;101018.78;4182251;28;20354;-68
2023/07/05 04:45:55;;;;;;;5.85;2.05;;;;;;;20.69;49.78;101022.28;4181946;28;20307;-68
2023/07/05 04:47:57;;;;;;;5.15;2.15;;;;;;;20.68;50.13;101026.78;4182819;28;20048;-68
2023/07/05 04:49:58;;;;;;;4.53;1.88;;;;;;;20.67;50.00;101027.75;4182881;28;20049;-67
2023/07/05 04:52:00;;;;;;;6.10;2.03;;;;;;;20.67;50.18;101024.22;4182694;28;20044;-67
2023/07/05 04:54:02;;;;;;;4.68;1.80;;;;;;;20.66;49.91;101026.03;4182832;28;20468;-67
2023/07/05 04:56:04;;;;;;;5.32;2.00;;;;;;;20.66;50.17;101031.38;4181675;28;20072;-67
2023/07/05 04:58:05;;;;;;;;;;;;;;;20.65;49.92;101024.34;4183372;28;20477;-67
2023/07/05 05:00:11;;;;;;;4.47;1.83;;;;;;;20.64;50.16;101032.47;4182574;28;19971;-67
2023/07/05 05:02:12;;;;;;;6.57;2.10;;;;;;;20.64;50.20;101032.47;4182285;28;20445;-67
2023/07/05 05:04:14;;;;;;;5.28;1.83;;;;;;;20.64;50.16;101041.31;4182641;28;20049;-67
2023/07/05 05:06:17;;;;;;;5.03;2.10;;;;;;;20.64;50.14;101044.00;4181326;28;20063;-68
2023/07/05 05:08:23;;;;;;;4.95;1.88;;;;;;;20.64;50.10;101043.16;4189148;28;20159;-67
2023/07/05 05:10:25;;;;;;;3.75;1.65;;;;;;;20.63;50.08;101055.66;4198662;28;20048;-67
2023/07/05 05:12:27;;;;;;;4.15;1.73;;;;;;;20.61;49.93;101038.03;4198983;28;20499;-68
2023/07/05 05:14:28;;;;;;;4.82;1.80;;;;;;;20.63;49.82;101052.13;4198780;28;20116;-67
2023/07/05 05:16:30;;;;;;;5.38;1.98;;;;;;;20.63;49.79;101044.13;4197815;28;20059;-67
2023/07/05 05:18:35;;;;;;;4.68;1.92;;;;;;;20.63;50.06;101044.13;4195023;28;20101;-66
2023/07/05 05:20:38;;;;;;;4.18;1.80;;;;;;;20.62;49.69;101050.44;4182322;28;20095;-67
2023/07/05 05:22:40;;;;;;;5.38;1.70;;;;;;;20.60;50.02;101050.53;4182050;28;20076;-70
2023/07/05 05:24:42;;;;;;;;;;;;;;;20.60;50.12;101050.53;4182760;28;20049;-68
2023/07/05 05:26:43;;;;;;;6.30;2.10;;;;;;;20.57;49.94;101051.63;4181372;28;19952;-67
2023/07/05 05:28:45;;;;;;;6.30;1.92;;;;;;;20.59;49.97;101051.50;4181924;28;20049;-67
2023/07/05 05:30:48;;;;;;;5.05;2.00;;;;;;;20.58;49.96;101053.34;4181834;28;20467;-67
2023/07/05 05:32:49;;;;;;;6.15;1.90;;;;;;;20.58;49.83;101055.13;4182099;28;20049;-67
2023/07/05 05:34:51;;;;;;;;;;;;;;;20.58;49.70;101053.34;4182290;28;20482;-67
2023/07/05 05:36:53;;;;;;;4.00;1.63;;;;;;;20.57;50.16;101054.28;4181167;28;19920;-66
2023/07/05 05:38:55;;;;;;;4.55;1.75;;;;;;;20.57;49.73;101051.63;4181880;28;20124;-67
2023/07/05 05:41:07;;;;;;;4.63;1.70;;;;;;;20.58;49.87;101052.47;4181974;28;20061;-68
2023/07/05 05:43:09;;;;;;;4.47;1.90;;;;;;;20.55;50.00;101053.53;4181779;28;20487;-68
2023/07/05 05:45:11;;;;;;;5.95;2.22;;;;;;;20.57;50.03;101056.09;4180311;28;20053;-67
2023/07/05 05:47:13;;;;;;;6.07;2.13;;;;;;;20.56;49.91;101051.72;4179637;28;20045;-67
2023/07/05 05:49:15;;;;;;;6.90;1.90;;;;;;;20.55;49.91;101056.22;4181923;28;20118;-68
2023/07/05 05:51:16;;;;;;;5.43;2.00;;;;;;;20.56;49.80;101057.06;4181992;28;20124;-67
2023/07/05 05:53:18;;;;;;;5.25;2.15;;;;;;;20.54;49.73;101054.50;4181350;28;20128;-67
2023/07/05 05:55:20;;;;;;;5.18;2.22;;;;;;;20.55;49.79;101056.22;4180679;28;20049;-67
2023/07/05 05:57:21;;;;;;;4.93;1.95;;;;;;;20.56;49.82;101063.28;4180861;28;20069;-67
2023/07/05 05:59:23;;;;;;;7.07;2.20;;;;;;;20.56;49.44;101070.41;4181194;28;20071;-67
2023/07/05 06:01:25;;;;;;;5.38;2.00;;;;;;;20.55;49.96;101066.91;4181784;28;20082;-66
2023/07/05 06:03:26;;;;;;;6.47;2.10;;;;;;;20.56;49.71;101065.94;4181493;28;20080;-67
2023/07/05 06:05:28;;;;;;;5.05;2.05;;;;;;;20.55;50.04;101080.28;4181539;28;20044;-67
2023/07/05 06:07:30;;;;;;;;;;;;;;;20.55;49.72;101072.25;4179585;28;20045;-67
2023/07/05 06:09:39;;;;;;;4.57;2.05;;;;;;;20.50;49.99;101077.09;4198257;28;20011;-67
2023/07/05 06:11:41;;;;;;;4.65;1.92;;;;;;;20.51;49.85;101073.44;4197919;28;20052;-67
2023/07/05 06:13:43;;;;;;;;;;;;;;;20.54;49.67;101085.72;4198356;28;20465;-68
2023/07/05 06:15:44;;;;;;;5.33;1.87;;;;;;;20.52;49.71;101083.19;4197801;28;19936;-67
2023/07/05 06:17:59;;;;;;;4.38;2.00;;;;;;;20.52;49.51;101096.53;4197615;28;20504;-68
2023/07/05 06:20:03;;;;;;;6.70;2.35;;;;;;;20.53;49.51;101090.19;4182892;28;20072;-68
2023/07/05 06:22:05;;;;;;;5.07;2.13;;;;;;;20.53;49.42;101087.53;4181422;28;20045;-68
2023/07/05 06:24:07;;;;;;;5.13;2.38;;;;;;;20.53;49.88;101092.88;4180981;28;20087;-68
2023/07/05 06:26:09;;;;;;;4.75;1.98;;;;;;;20.52;49.63;101088.53;4180416;28;20547;-68
2023/07/05 06:28:11;;;;;;;5.28;1.90;;;;;;;20.53;49.86;101094.72;4180840;28;20052;-67
2023/07/05 06:30:13;;;;;;;5.63;2.20;;;;;;;20.54;49.60;101102.59;4181039;28;20076;-67
2023/07/05 06:32:15;;;;;;;4.75;1.98;;;;;;;20.54;49.41;101099.09;4181002;28;20041;-67
2023/07/05 06:34:17;;;;;;;5.20;2.10;;;;;;;20.53;49.37;101105.41;4179811;28;20121;-69
2023/07/05 06:36:18;;;;;;;6.65;2.17;;;;;;;20.52;49.70;101099.22;4180517;28;20516;-69
2023/07/05 06:38:20;;;;;;;5.28;2.05;;;;;;;20.53;49.86;101097.38;4180810;28;20420;-68
2023/07/05 06:40:22;;;;;;;5.47;2.22;;;;;;;20.53;49.68;101090.19;4181044;28;20083;-69
2023/07/05 06:42:23;;;;;;;5.45;2.15;;;;;;;20.54;49.67;101091.06;4180828;28;20098;-69
2023/07/05 06:44:27;;;;;;;5.55;2.60;;;;;;;20.53;49.43;101110.75;4180964;28;20118;-69
2023/07/05 06:46:29;;;;;;;6.20;2.30;;;;;;;20.53;49.74;101103.56;4180139;28;20056;-68
2023/07/05 06:48:31;;;;;;;;;;;;;;;20.53;49.76;101106.25;4181396;28;20057;-68
2023/07/05 06:50:33;;;;;;;4.93;2.10;;;;;;;20.53;49.95;101105.41;4180742;28;19955;-68
2023/07/05 06:52:34;;;;;;;5.95;2.20;;;;;;;20.52;49.88;101112.56;4181033;28;20122;-68
2023/07/05 06:54:36;;;;;;;6.53;2.15;;;;;;;20.54;49.69;101121.31;4180880;28;20065;-68
2023/07/05 06:56:38;;;;;;;4.10;2.00;;;;;;;20.54;49.31;101115.13;4179482;28;20041;-68
2023/07/05 06:58:40;;;;;;;4.90;2.08;;;;;;;20.54;49.44;101113.28;4180936;28;20099;-69
2023/07/05 07:00:44;;;;;;;5.45;2.13;;;;;;;20.54;49.86;101123.13;4180910;28;20733;-68
2023/07/05 07:02:46;;;;;;;6.65;2.20;;;;;;;20.53;49.49;101130.28;4180807;28;20045;-68
2023/07/05 07:04:48;;;;;;;6.88;2.33;;;;;;;20.52;49.32;101127.72;4180442;28;20059;-68
2023/07/05 07:06:50;;;;;;;7.43;2.38;;;;;;;20.54;49.57;101136.50;4179401;28;20053;-68
2023/07/05 07:08:52;;;;;;;5.65;1.98;;;;;;;20.52;49.35;101141.97;4192017;28;20106;-68
2023/07/05 07:10:53;;;;;;;4.97;1.75;;;;;;;20.53;49.86;101142.81;4196819;28;20079;-68
2023/07/05 07:12:55;;;;;;;5.43;1.98;;;;;;;20.53;49.63;101151.66;4196919;28;20052;-69
2023/07/05 07:14:57;;;;;;;;;;;;;;;20.53;49.67;101142.81;4196159;28;20518;-69
2023/07/05 07:16:59;;;;;;;4.70;1.77;;;;;;;20.50;49.76;101149.22;4196124;28;19963;-69
2023/07/05 07:19:01;;;;;;;5.00;1.90;;;;;;;20.51;49.29;101140.25;4190470;28;20501;-68
2023/07/05 07:21:05;;;;;;;6.00;2.00;;;;;;;20.53;49.19;101150.81;4180480;28;20055;-68
2023/07/05 07:23:07;;;;;;;5.18;1.90;;;;;;;20.53;49.33;101150.81;4180629;28;20067;-68
2023/07/05 07:25:09;;;;;;;4.82;1.90;;;;;;;20.52;49.59;101155.31;4180458;28;20049;-69
2023/07/05 07:27:10;;;;;;;6.35;2.10;;;;;;;20.52;49.37;101154.44;4178799;28;20056;-68
2023/07/05 07:29:12;;;;;;;5.05;1.73;;;;;;;20.52;49.45;101154.44;4179968;28;20056;-68
2023/07/05 07:31:16;;;;;;;4.45;2.15;;;;;;;20.49;49.33;101160.88;4180436;28;20103;-68
2023/07/05 07:33:21;;;;;;;6.85;2.08;;;;;;;20.51;49.38;101169.63;4180268;28;20194;-69
2023/07/05 07:35:23;;;;;;;5.57;2.00;;;;;;;20.52;49.25;101165.13;4180095;28;20073;-69
2023/07/05 07:37:25;;;;;;;6.18;1.98;;;;;;;20.52;49.56;101168.69;4179320;28;20061;-69
2023/07/05 07:39:29;;;;;;;5.00;1.92;;;;;;;20.52;49.74;101171.34;4179019;28;20094;-69
2023/07/05 07:41:32;;;;;;;5.32;2.08;;;;;;;20.53;49.84;101174.88;4179795;28;20107;-68
2023/07/05 07:43:36;;;;;;;6.72;2.10;;;;;;;20.51;49.47;101179.47;4180164;28;20475;-69
2023/07/05 07:45:38;;;;;;;6.65;1.95;;;;;;;20.52;49.49;101181.16;4178969;28;20487;-69
2023/07/05 07:47:39;;;;;;;5.15;1.90;;;;;;;20.51;49.21;101185.66;4179144;28;20049;-69
2023/07/05 07:49:41;;;;;;;4.88;1.80;;;;;;;20.53;49.38;101182.88;4180004;28;20094;-68
2023/07/05 07:51:44;;;;;;;5.90;1.83;;;;;;;20.52;49.41;101189.19;4180078;28;20052;-68
2023/07/05 07:53:46;;;;;;;5.28;1.90;;;;;;;20.52;49.70;101195.41;4180078;28;20053;-69
2023/07/05 07:55:47;;;;;;;5.30;2.10;;;;;;;20.52;49.46;101189.19;4178492;28;20463;-68
2023/07/05 07:57:49;;;;;;;5.10;1.92;;;;;;;20.51;49.50;101183.00;4179129;28;20547;-68
2023/07/05 07:59:52;;;;;;;6.72;1.95;;;;;;;20.53;49.33;101193.56;4179960;28;20044;-69
2023/07/05 08:01:53;;;;;;;5.90;1.70;;;;;;;20.52;49.52;101191.84;4179807;28;20102;-68
2023/07/05 08:03:57;;;;;;;5.93;1.90;;;;;;;20.49;49.39;101187.59;4179906;28;20128;-67
2023/07/05 08:05:59;;;;;;;5.45;2.05;;;;;;;20.52;49.64;101195.41;4179563;28;20037;-68
2023/07/05 08:08:01;;;;;;;5.45;2.15;;;;;;;20.53;49.31;101190.91;4183253;28;20411;-70
2023/07/05 08:10:03;;;;;;;5.43;2.00;;;;;;;20.53;49.67;101193.56;4195882;28;20107;-68
2023/07/05 08:12:05;;;;;;;5.35;2.00;;;;;;;20.50;49.59;101183.97;4196383;28;20095;-68
2023/07/05 08:14:08;;;;;;;7.00;2.15;;;;;;;20.50;49.33;101181.28;4196323;28;20045;-68
2023/07/05 08:16:10;;;;;;;5.40;1.85;;;;;;;20.54;49.51;101182.75;4196025;28;20067;-69
2023/07/05 08:18:12;;;;;;;5.22;1.73;;;;;;;20.57;49.41;101179.03;4180792;28;20563;-66
2023/07/05 08:20:13;;;;;;;5.45;1.73;;;;;;;20.55;49.70;101183.63;4199677;28;20112;-68
2023/07/05 08:22:15;;;;;;;3.85;1.55;;;;;;;20.54;49.55;101176.59;4196977;28;20063;-68
2023/07/05 08:24:19;;;;;;;5.93;2.03;;;;;;;20.56;49.57;101185.31;4183206;28;20047;-68
2023/07/05 08:26:28;;;;;;;8.15;3.10;;;;;;;20.70;51.08;101181.69;4175505;28;20403;-63
2023/07/05 08:28:30;;;;;;;7.97;2.40;;;;;;;20.90;51.09;101191.00;4181426;28;20049;-67
2023/07/05 08:30:33;;;;;;;9.23;2.60;;;;;;;20.99;49.97;101192.16;4179144;28;20081;-66
2023/07/05 08:32:35;;;;;;;5.82;2.20;;;;;;;21.04;49.56;101188.16;4181379;28;20543;-72
2023/07/05 08:34:37;;;;;;;8.45;2.00;;;;;;;21.08;49.51;101191.47;4166580;28;20037;-67
2023/07/05 08:36:40;;;;;;;6.90;1.83;;;;;;;21.11;49.91;101193.09;4181668;28;20041;-70
2023/07/05 08:38:47;;;;;;;8.27;2.03;;;;;;;21.15;49.17;101200.75;4182813;28;20110;-73
2023/07/05 08:40:55;;;;;;;4.15;1.60;;;;;;;21.16;49.32;101197.13;4181851;28;20435;-69
2023/07/05 08:43:13;;;;;;;8.48;2.20;;;;;;;21.21;48.68;101199.47;4181932;28;20072;-69
2023/07/05 08:45:31;;;;;;;6.07;1.92;;;;;;;21.26;48.60;101207.16;4179637;28;20045;-66
2023/07/05 08:47:49;;;;;;;7.25;1.90;;;;;;;21.32;48.30;101214.72;4178158;28;20559;-69
2023/07/05 08:50:31;;;;;;;8.40;2.08;;;;;;;21.39;47.63;101218.66;4183260;28;20049;-69
2023/07/05 08:52:42;;;;;;;7.45;2.00;;;;;;;21.41;47.99;101219.41;4175237;28;20050;-63
2023/07/05 08:54:45;;;;;;;8.20;1.90;;;;;;;21.42;48.04;101229.13;4181930;28;20044;-67
2023/07/05 08:56:53;;;;;;;10.20;2.03;;;;;;;21.43;47.99;101230.00;4180679;28;20037;-71
2023/07/05 08:59:25;;;;;;;11.55;2.28;;;;;;;21.48;47.53;101223.34;4180144;28;20045;-67
2023/07/05 09:01:31;;;;;;;12.63;2.72;;;;;;;21.52;47.43;101235.53;4181298;28;20150;-68
2023/07/05 09:03:33;;;;;;;8.45;2.45;;;;;;;21.54;47.25;101230.06;4178968;28;20061;-68
2023/07/05 09:05:59;;;;;;;8.35;1.90;;;;;;;21.54;46.90;101233.59;4178215;28;20546;-68
2023/07/05 09:08:24;;;;;;;11.57;2.63;;;;;;;21.56;47.22;101228.13;4180309;28;20045;-65
2023/07/05 09:11:03;;;;;;;8.13;1.90;;;;;;;21.63;47.23;101224.06;4175347;28;20216;-66
2023/07/05 09:13:21;;;;;;;9.98;1.95;;;;;;;21.66;46.70;101231.84;4180452;28;20483;-64
2023/07/05 09:15:36;;;;;;;11.48;2.15;;;;;;;21.62;46.72;101222.34;4182155;28;20132;-66
2023/07/05 09:18:19;;;;;;;8.00;2.28;;;;;;;21.60;46.47;101224.28;4186446;28;20087;-67
2023/07/05 09:20:44;;;;;;;9.68;2.03;;;;;;;21.65;46.27;101223.94;4194428;28;20048;-67
2023/07/05 09:22:47;;;;;;;8.60;1.98;;;;;;;21.60;46.54;101218.91;4181817;28;20106;-67
2023/07/05 09:24:49;;;;;;;6.97;1.95;;;;;;;21.58;46.61;101230.72;4187701;28;20043;-62
2023/07/05 09:27:24;;;;;;;8.48;2.08;;;;;;;21.60;46.76;101224.28;4197788;28;20257;-67
2023/07/05 09:29:50;;;;;;;11.52;2.15;;;;;;;21.60;46.37;101220.75;4197879;28;20047;-66
2023/07/05 09:31:53;;;;;;;11.30;2.28;;;;;;;21.61;46.21;101219.78;4187168;28;20049;-65
2023/07/05 09:34:14;;;;;;;9.63;2.33;;;;;;;21.66;46.25;101220.28;4192031;28;20080;-66
2023/07/05 09:36:22;;;;;;;6.78;1.67;;;;;;;21.66;46.70;101220.28;4198276;28;20044;-66
2023/07/05 09:38:30;;;;;;;9.98;2.03;;;;;;;21.61;46.49;101217.94;4197417;28;20053;-65
2023/07/05 09:40:38;;;;;;;23.27;3.15;;;;;;;21.60;46.73;101218.06;4190814;28;20045;-66
2023/07/05 09:42:56;;;;;;;21.10;3.85;;;;;;;21.61;46.54;101217.94;4165506;28;20504;-66
2023/07/05 09:44:58;;;;;;;27.48;4.03;;;;;;;21.58;46.62;101228.91;4165471;28;20069;-67